CSL Niagara — VCGJ — position and weather

sailwx.info

Track history (hours):
 
Tides and Currents Weather Stations Pressure Air Temp Water Temp Dewpoint Dewpoint Depression Visibility Wind Speed Wind Dir Waves Ship Positions

CSL Niagara

ex J. W. McGiffin

Last reported at 2014-Oct-29 06:13 UTC. Time now 2014-Oct-30 22:53 UTC.
Position N 43°54' W 076°45'.

Length 225 m; draft 8.5 m.

Type: Cargo ship. MMSI: 316029000.

Date/timePositionNaut miles runAvg speedWind from/ knotsBaromVisibWave heightAir tempDewpointWater temp
2014-Oct-29 06:13N 43°54' W 076°45'811.7
2014-Oct-29 05:33N 43°58' W 076°36'1111.3
2014-Oct-29 04:33N 44°06' W 076°25'1010.0
2014-Oct-29 03:33N 44°12' W 076°14'10 9.8
2014-Oct-29 02:33N 44°17' W 076°01'5 0.2
2014-Oct-28 02:26N 44°14' W 076°07'8 9.6
2014-Oct-28 01:33N 44°12' W 076°18'1110.7
2014-Oct-28 00:33N 44°03' W 076°26'  
2014-Oct-24 18:32N 42°32' W 080°00'1111.8
2014-Oct-24 17:33N 42°43' W 080°02'4 4.4
2014-Oct-24 16:33N 42°47' W 080°05'0 0.0
2014-Oct-24 15:33N 42°47' W 080°05'0 0.0
2014-Oct-24 14:33N 42°47' W 080°05'0 0.0
2014-Oct-24 13:33N 42°47' W 080°05'0 0.0
2014-Oct-24 12:33N 42°47' W 080°05'0 0.0
2014-Oct-24 11:33N 42°47' W 080°05'0 0.0
2014-Oct-24 10:33N 42°47' W 080°05'0 0.0
2014-Oct-24 09:33N 42°47' W 080°05'0 0.0
2014-Oct-24 08:33N 42°47' W 080°05'1 1.0
2014-Oct-24 07:33N 42°46' W 080°04'7 6.7
2014-Oct-24 06:33N 42°39' W 080°04'10 9.8
2014-Oct-24 05:33N 42°30' W 080°02'1111.1
2014-Oct-24 04:33N 42°25' W 080°16'263 6.9
2014-Oct-22 14:33N 45°57' W 083°54'9 9.3
2014-Oct-22 13:33N 46°05' W 084°01'17 7.8
2014-Oct-22 11:23N 46°20' W 084°13'37 4.0
2014-Oct-22 02:14N 46°44' W 084°53'  
2014-Oct-19 11:25N 47°02' W 085°53'5911.6
2014-Oct-19 06:19N 46°32' W 084°39'  
Track history (hours):
 
Tides and Currents Weather Stations Pressure Air Temp Water Temp Dewpoint Dewpoint Depression Visibility Wind Speed Wind Dir Waves Ship Positions

CSL Niagara

ex J. W. McGiffin

Last reported at 2014-Oct-29 06:13 UTC. Time now 2014-Oct-30 22:53 UTC.
Position N 43°54' W 076°45'.

Length 225 m; draft 8.5 m.

Type: Cargo ship. MMSI: 316029000.

Date/timePositionNaut miles runAvg speedWind from/ knotsBaromVisibWave heightAir tempDewpointWater temp
2014-Oct-29 06:13N 43°54' W 076°45'811.7
2014-Oct-29 05:33N 43°58' W 076°36'1111.3
2014-Oct-29 04:33N 44°06' W 076°25'1010.0
2014-Oct-29 03:33N 44°12' W 076°14'10 9.8
2014-Oct-29 02:33N 44°17' W 076°01'5 0.2
2014-Oct-28 02:26N 44°14' W 076°07'8 9.6
2014-Oct-28 01:33N 44°12' W 076°18'1110.7
2014-Oct-28 00:33N 44°03' W 076°26'  
2014-Oct-24 18:32N 42°32' W 080°00'1111.8
2014-Oct-24 17:33N 42°43' W 080°02'4 4.4
2014-Oct-24 16:33N 42°47' W 080°05'0 0.0
2014-Oct-24 15:33N 42°47' W 080°05'0 0.0
2014-Oct-24 14:33N 42°47' W 080°05'0 0.0
2014-Oct-24 13:33N 42°47' W 080°05'0 0.0
2014-Oct-24 12:33N 42°47' W 080°05'0 0.0
2014-Oct-24 11:33N 42°47' W 080°05'0 0.0
2014-Oct-24 10:33N 42°47' W 080°05'0 0.0
2014-Oct-24 09:33N 42°47' W 080°05'0 0.0
2014-Oct-24 08:33N 42°47' W 080°05'1 1.0
2014-Oct-24 07:33N 42°46' W 080°04'7 6.7
2014-Oct-24 06:33N 42°39' W 080°04'10 9.8
2014-Oct-24 05:33N 42°30' W 080°02'1111.1
2014-Oct-24 04:33N 42°25' W 080°16'263 6.9
2014-Oct-22 14:33N 45°57' W 083°54'9 9.3
2014-Oct-22 13:33N 46°05' W 084°01'17 7.8
2014-Oct-22 11:23N 46°20' W 084°13'37 4.0
2014-Oct-22 02:14N 46°44' W 084°53'  
2014-Oct-19 11:25N 47°02' W 085°53'5911.6
2014-Oct-19 06:19N 46°32' W 084°39'  

Dump ship's entire track history